Hanamaki Airport


Codes: RJSI/HNA
Name: Hanamaki Airport
City:
Country: Japan
Elevation: 297 ft.
Wikipedia:

Photos at Hanamaki Airport


   Photos courtesy of SpottingLog. You can add your own sightings and photos by signing up for a free trial today.



No photos found.

Weather at Hanamaki Airport


Time (UTC)DescriptionTempratureWindCloud coverageVisibilityPressureHumidity
26-Jun-2024 00:00Overcast Clouds19°C9 mph, W100%10000m1012hPa79%
26-Jun-2024 03:00Overcast Clouds20°C18 mph, W100%10000m1012hPa72%
26-Jun-2024 06:00Overcast Clouds21°C18 mph, W95%10000m1012hPa65%
26-Jun-2024 09:00Overcast Clouds18°C11 mph, W100%10000m1014hPa75%
26-Jun-2024 12:00Overcast Clouds15°C4 mph, W100%10000m1016hPa86%
26-Jun-2024 15:00Overcast Clouds14°C2 mph, NW97%10000m1016hPa88%
26-Jun-2024 18:00Broken Clouds13°C2 mph, NW84%10000m1016hPa95%
26-Jun-2024 21:00Overcast Clouds16°C2 mph, NW100%10000m1017hPa82%
27-Jun-2024 00:00Overcast Clouds21°C7 mph, NW96%10000m1017hPa57%
27-Jun-2024 03:00Scattered Clouds25°C9 mph, W33%10000m1015hPa44%
27-Jun-2024 06:00Few Clouds26°C11 mph, W15%10000m1014hPa40%
27-Jun-2024 09:00Clear Sky21°C4 mph, W0%10000m1014hPa64%
27-Jun-2024 12:00Clear Sky15°C2 mph, SW0%10000m1015hPa80%
27-Jun-2024 15:00Broken Clouds15°C2 mph, NW73%10000m1015hPa81%
27-Jun-2024 18:00Broken Clouds15°C2 mph, NW80%10000m1015hPa79%
27-Jun-2024 21:00Overcast Clouds18°C2 mph, NW98%10000m1016hPa73%
28-Jun-2024 00:00Overcast Clouds24°C0 mph, S99%10000m1015hPa52%
28-Jun-2024 03:00Overcast Clouds27°C4 mph, S100%10000m1013hPa43%
28-Jun-2024 06:00Overcast Clouds28°C4 mph, SE100%10000m1012hPa44%
28-Jun-2024 09:00Overcast Clouds22°C7 mph, S100%10000m1013hPa76%
28-Jun-2024 12:00Overcast Clouds18°C4 mph, S100%10000m1013hPa88%
28-Jun-2024 15:00Overcast Clouds18°C0 mph, NE100%10000m1012hPa92%
28-Jun-2024 18:00Light Rain18°C2 mph, E100%10000m1011hPa94%
28-Jun-2024 21:00Light Rain18°C2 mph, E100%8200m1010hPa98%
29-Jun-2024 00:00Light Rain19°C0 mph, E100%10000m1008hPa94%
29-Jun-2024 03:00Overcast Clouds24°C4 mph, SW100%10000m1005hPa79%
29-Jun-2024 06:00Light Rain25°C2 mph, S96%10000m1003hPa77%
29-Jun-2024 09:00Moderate Rain21°C2 mph, NW100%10000m1004hPa97%
29-Jun-2024 12:00Light Rain20°C0 mph, S100%9903m1005hPa99%
29-Jun-2024 15:00Light Rain20°C4 mph, NW100%3563m1005hPa99%
29-Jun-2024 18:00Light Rain19°C2 mph, NW100%10000m1007hPa97%
29-Jun-2024 21:00Light Rain19°C11 mph, W96%10000m1009hPa94%
30-Jun-2024 00:00Broken Clouds24°C11 mph, W72%10000m1010hPa63%
30-Jun-2024 03:00Overcast Clouds28°C11 mph, W98%10000m1010hPa52%
30-Jun-2024 06:00Overcast Clouds28°C11 mph, W88%10000m1009hPa52%
30-Jun-2024 09:00Overcast Clouds24°C2 mph, W100%10000m1010hPa80%
30-Jun-2024 12:00Overcast Clouds21°C2 mph, W100%10000m1011hPa89%
30-Jun-2024 15:00Overcast Clouds20°C2 mph, SW100%10000m1010hPa89%
30-Jun-2024 18:00Overcast Clouds21°C0 mph, S100%10000m1008hPa86%
30-Jun-2024 21:00Light Rain20°C2 mph, S100%10000m1008hPa95%